createdAt,value
2019-03-20T00:00:55.594Z,27.33
2019-03-20T00:03:23.137Z,26.30
2019-03-20T00:05:51.089Z,26.20
2019-03-20T00:08:18.745Z,27.27
2019-03-20T00:10:46.338Z,27.37
2019-03-20T00:13:13.952Z,27.07
2019-03-20T00:15:41.657Z,26.73
2019-03-20T00:18:09.313Z,26.93
2019-03-20T00:20:38.887Z,27.23
2019-03-20T00:23:07.669Z,27.03
2019-03-20T00:25:35.216Z,27.20
2019-03-20T00:28:03.957Z,26.53
2019-03-20T00:30:31.606Z,27.20
2019-03-20T00:32:59.425Z,27.97
2019-03-20T00:35:28.293Z,27.67
2019-03-20T00:37:58.105Z,28.10
2019-03-20T00:40:25.791Z,28.07
2019-03-20T00:42:53.457Z,27.30
2019-03-20T00:45:24.139Z,27.77
2019-03-20T00:47:54.803Z,26.67
2019-03-20T00:50:22.369Z,28.40
2019-03-20T00:52:49.964Z,27.83
2019-03-20T00:55:21.842Z,29.07
2019-03-20T00:57:49.477Z,27.53
2019-03-20T01:00:17.410Z,28.20
2019-03-20T01:02:45.165Z,28.13
2019-03-20T01:05:13.889Z,27.77
2019-03-20T01:07:41.842Z,28.60
2019-03-20T01:10:10.919Z,27.67
2019-03-20T01:12:39.260Z,29.53
2019-03-20T01:15:08.647Z,32.23
2019-03-20T01:17:36.223Z,28.63
2019-03-20T01:20:04.762Z,29.57
2019-03-20T01:22:32.336Z,29.13
2019-03-20T01:24:59.966Z,28.30
2019-03-20T01:27:27.564Z,29.20
2019-03-20T01:29:55.129Z,28.20
2019-03-20T01:32:22.784Z,28.73
2019-03-20T01:34:50.407Z,28.57
2019-03-20T01:37:18.025Z,28.83
2019-03-20T01:39:46.756Z,28.90
2019-03-20T01:42:15.419Z,27.93
2019-03-20T01:44:43.108Z,28.07
2019-03-20T01:47:10.710Z,27.70
2019-03-20T01:49:38.329Z,27.57
2019-03-20T01:52:05.991Z,27.93
2019-03-20T01:54:33.601Z,27.83
2019-03-20T01:57:01.212Z,27.63
2019-03-20T01:59:29.113Z,28.63
2019-03-20T02:01:56.769Z,27.83
2019-03-20T02:04:26.208Z,27.60
2019-03-20T02:06:53.927Z,25.80
2019-03-20T02:09:22.697Z,27.70
2019-03-20T02:11:51.392Z,26.13
2019-03-20T02:14:21.402Z,24.93
2019-03-20T02:16:49.014Z,26.10
2019-03-20T02:19:16.724Z,26.67
2019-03-20T02:21:44.492Z,25.93
2019-03-20T02:24:15.280Z,26.67
2019-03-20T02:26:43.024Z,24.83
2019-03-20T02:29:10.946Z,27.17
2019-03-20T02:31:42.137Z,26.73
2019-03-20T02:34:09.811Z,28.23
2019-03-20T02:36:37.386Z,27.67
2019-03-20T02:39:06.667Z,29.57
2019-03-20T02:41:35.747Z,28.43
2019-03-20T02:44:05.766Z,29.57
2019-03-20T02:46:33.349Z,28.17
2019-03-20T02:49:01.052Z,28.80
2019-03-20T02:51:30.315Z,29.60
2019-03-20T02:53:58.482Z,28.77
2019-03-20T02:56:26.151Z,28.00
2019-03-20T02:58:53.790Z,29.50
2019-03-20T03:01:21.385Z,28.37
2019-03-20T03:03:50.422Z,28.60
2019-03-20T03:06:18.296Z,29.27
2019-03-20T03:08:46.033Z,28.60
2019-03-20T03:11:14.737Z,28.70
2019-03-20T03:13:42.361Z,28.60
2019-03-20T03:16:09.886Z,29.87
2019-03-20T03:18:37.558Z,29.80
2019-03-20T03:21:05.217Z,28.87
2019-03-20T03:23:32.804Z,28.57
2019-03-20T03:26:00.979Z,27.40
2019-03-20T03:28:28.826Z,27.93
2019-03-20T03:30:56.495Z,29.17
2019-03-20T03:33:24.349Z,28.20
2019-03-20T03:35:52.139Z,27.80
2019-03-20T03:38:19.982Z,27.47
2019-03-20T03:40:47.628Z,27.77
2019-03-20T03:43:15.309Z,28.67
2019-03-20T03:45:52.986Z,27.33
2019-03-20T03:48:16.477Z,27.73
2019-03-20T03:50:47.984Z,26.33
2019-03-20T03:53:14.761Z,25.50
2019-03-20T03:55:44.018Z,27.33
2019-03-20T03:58:11.712Z,26.93
2019-03-20T04:00:39.410Z,26.07
2019-03-20T04:03:07.068Z,26.83
2019-03-20T04:05:35.583Z,27.50
2019-03-20T04:08:03.332Z,28.03
2019-03-20T04:10:30.953Z,28.03
2019-03-20T04:12:58.835Z,28.33
2019-03-20T04:15:28.846Z,29.10
2019-03-20T04:17:57.757Z,29.60
2019-03-20T04:20:25.378Z,30.27
2019-03-20T04:22:54.257Z,30.10
2019-03-20T04:25:21.954Z,30.73
2019-03-20T04:27:50.636Z,31.70
2019-03-20T04:30:18.513Z,32.13
2019-03-20T04:32:46.152Z,31.73
2019-03-20T04:35:17.250Z,34.03
2019-03-20T04:37:44.863Z,34.17
2019-03-20T04:40:13.149Z,32.73
2019-03-20T04:42:40.912Z,34.37
2019-03-20T04:45:09.184Z,34.37
2019-03-20T04:47:36.838Z,35.20
2019-03-20T04:50:05.644Z,36.13
2019-03-20T04:52:33.309Z,35.77
2019-03-20T04:55:01.049Z,35.60
2019-03-20T04:57:28.635Z,36.47
2019-03-20T04:59:56.313Z,35.57
2019-03-20T05:02:24.025Z,39.17
2019-03-20T05:04:51.622Z,36.23
2019-03-20T05:07:19.275Z,36.50
2019-03-20T05:09:47.956Z,36.70
2019-03-20T05:12:15.656Z,36.23
2019-03-20T05:14:43.297Z,35.80
2019-03-20T05:17:10.941Z,35.67
2019-03-20T05:19:38.526Z,35.73
2019-03-20T05:22:06.241Z,35.90
2019-03-20T05:24:33.885Z,37.13
2019-03-20T05:27:02.877Z,38.00
2019-03-20T05:29:31.738Z,38.80
2019-03-20T05:31:59.451Z,37.43
2019-03-20T05:34:27.570Z,38.23
2019-03-20T05:36:55.140Z,37.10
2019-03-20T05:39:22.832Z,37.33
2019-03-20T05:41:50.631Z,36.63
2019-03-20T05:44:18.125Z,34.97
2019-03-20T05:46:45.692Z,34.23
2019-03-20T05:49:13.361Z,34.50
2019-03-20T05:51:41.093Z,33.90
2019-03-20T05:54:09.036Z,33.77
2019-03-20T05:56:36.725Z,32.83
2019-03-20T05:59:04.298Z,32.10
2019-03-20T06:01:31.934Z,32.83
2019-03-20T06:04:02.854Z,31.93
2019-03-20T06:06:30.485Z,31.10
2019-03-20T06:09:12.914Z,30.10
2019-03-20T06:11:40.632Z,29.47
2019-03-20T06:14:08.220Z,29.30
2019-03-20T06:16:35.721Z,28.60
2019-03-20T06:19:06.460Z,27.53
2019-03-20T06:21:34.020Z,27.53
2019-03-20T06:24:01.708Z,26.37
2019-03-20T06:26:29.382Z,26.27
2019-03-20T06:28:57.030Z,26.53
2019-03-20T06:31:24.806Z,25.47
2019-03-20T06:33:52.373Z,25.70
2019-03-20T06:36:19.924Z,26.77
2019-03-20T06:38:47.555Z,25.77
2019-03-20T06:41:15.137Z,23.87
2019-03-20T06:43:42.752Z,21.80
2019-03-20T06:46:10.449Z,22.73
2019-03-20T06:48:38.334Z,22.57
2019-03-20T06:51:06.406Z,22.43
2019-03-20T06:53:34.159Z,22.43
2019-03-20T06:56:01.952Z,20.17
2019-03-20T06:58:29.645Z,19.87
2019-03-20T07:01:21.900Z,18.77
2019-03-20T07:04:29.153Z,17.20
2019-03-20T07:07:43.485Z,17.17
2019-03-20T07:10:34.685Z,18.03
2019-03-20T07:13:02.454Z,17.23
2019-03-20T07:15:30.142Z,15.50
2019-03-20T07:17:57.781Z,15.10
2019-03-20T07:20:25.453Z,13.47
2019-03-20T07:22:53.058Z,13.00
2019-03-20T07:25:20.606Z,11.23
2019-03-20T07:27:48.218Z,11.57
2019-03-20T07:30:15.848Z,10.83
2019-03-20T07:32:43.584Z,9.57
2019-03-20T07:35:11.366Z,10.27
2019-03-20T07:37:38.993Z,12.43
2019-03-20T07:40:07.656Z,10.77
2019-03-20T07:42:36.394Z,10.53
2019-03-20T07:45:05.342Z,11.43
2019-03-20T07:47:33.170Z,11.37
2019-03-20T07:50:00.888Z,12.30
2019-03-20T07:52:29.683Z,12.60
2019-03-20T07:54:57.426Z,12.10
2019-03-20T07:57:25.137Z,12.77
2019-03-20T07:59:52.895Z,12.00
2019-03-20T08:02:20.541Z,11.80
2019-03-20T08:04:48.189Z,11.60
2019-03-20T08:07:15.859Z,10.87
2019-03-20T08:09:43.593Z,10.63
2019-03-20T08:12:11.390Z,10.10
2019-03-20T08:14:39.036Z,9.60
2019-03-20T08:17:06.768Z,8.93
2019-03-20T08:19:34.567Z,8.70
2019-03-20T08:22:02.326Z,9.23
2019-03-20T08:24:30.047Z,8.27
2019-03-20T08:26:57.666Z,8.70
2019-03-20T08:29:25.204Z,8.60
2019-03-20T08:31:52.864Z,9.63
2019-03-20T08:34:20.453Z,9.90
2019-03-20T08:36:48.254Z,9.43
2019-03-20T08:39:16.118Z,8.73
2019-03-20T08:41:43.688Z,8.37
2019-03-20T08:44:13.717Z,9.47
2019-03-20T08:46:41.354Z,7.10
2019-03-20T08:49:15.901Z,7.43
2019-03-20T08:51:43.514Z,8.00
2019-03-20T08:54:11.301Z,7.67
2019-03-20T08:56:39.410Z,8.23
2019-03-20T08:59:07.393Z,7.80
2019-03-20T09:01:36.125Z,7.30
2019-03-20T09:04:04.113Z,5.83
2019-03-20T09:06:31.968Z,6.13
2019-03-20T09:08:59.506Z,5.73
2019-03-20T09:11:27.565Z,6.07
2019-03-20T09:13:55.233Z,6.33
2019-03-20T09:16:22.890Z,5.27
2019-03-20T09:18:50.576Z,3.53
2019-03-20T09:21:18.329Z,3.87
2019-03-20T09:23:46.133Z,3.57
2019-03-20T09:26:13.843Z,4.50
2019-03-20T09:28:43.851Z,4.87
2019-03-20T09:31:14.093Z,5.43
2019-03-20T09:33:41.898Z,4.90
2019-03-20T09:36:09.640Z,5.20
2019-03-20T09:38:43.492Z,4.90
2019-03-20T09:41:09.137Z,4.60
2019-03-20T09:43:36.895Z,5.20
2019-03-20T09:46:05.065Z,4.63
2019-03-20T09:48:33.007Z,5.30
2019-03-20T09:51:00.623Z,4.77
2019-03-20T09:53:28.357Z,4.57
2019-03-20T09:55:56.080Z,5.07
2019-03-20T09:58:23.963Z,4.97
2019-03-20T10:00:51.659Z,4.63
2019-03-20T10:03:20.380Z,4.87
2019-03-20T10:05:52.328Z,5.33
2019-03-20T10:08:20.352Z,5.20
2019-03-20T10:10:50.058Z,5.20
2019-03-20T10:13:17.977Z,5.47
2019-03-20T10:15:45.833Z,6.30
2019-03-20T10:18:13.596Z,5.67
2019-03-20T10:20:41.381Z,6.67
2019-03-20T10:23:10.155Z,6.50
2019-03-20T10:25:44.591Z,6.87
2019-03-20T10:28:15.342Z,7.83
2019-03-20T10:30:43.409Z,7.43
2019-03-20T10:33:16.582Z,7.37
2019-03-20T10:35:50.227Z,7.50
2019-03-20T10:38:13.734Z,6.57
2019-03-20T10:40:41.486Z,5.93
2019-03-20T10:43:09.760Z,7.17
2019-03-20T10:45:37.888Z,6.33
2019-03-20T10:48:05.863Z,6.13
2019-03-20T10:50:33.940Z,5.60
2019-03-20T10:53:01.741Z,6.13
2019-03-20T10:55:31.545Z,6.17
2019-03-20T10:57:59.421Z,5.80
2019-03-20T11:00:29.464Z,6.23
2019-03-20T11:02:57.340Z,6.43
2019-03-20T11:05:25.438Z,5.67
2019-03-20T11:07:56.594Z,5.80
2019-03-20T11:10:24.698Z,4.80
2019-03-20T11:12:52.950Z,5.17
2019-03-20T11:15:29.367Z,5.47
2019-03-20T11:17:56.422Z,4.93
2019-03-20T11:20:25.328Z,5.30
2019-03-20T11:22:53.140Z,5.17
2019-03-20T11:25:21.045Z,5.07
2019-03-20T11:27:50.208Z,5.10
2019-03-20T11:30:19.944Z,5.53
2019-03-20T11:32:47.751Z,5.43
2019-03-20T11:35:17.202Z,5.23
2019-03-20T11:37:45.158Z,5.23
2019-03-20T11:40:24.087Z,5.50
2019-03-20T11:42:52.647Z,5.00
2019-03-20T11:45:20.433Z,5.53
2019-03-20T11:47:48.086Z,5.80
2019-03-20T11:50:18.373Z,5.60
2019-03-20T11:52:58.150Z,6.20
2019-03-20T11:55:30.047Z,5.00
2019-03-20T11:57:58.011Z,5.80
2019-03-20T12:00:26.384Z,5.20
2019-03-20T12:02:57.836Z,5.20
2019-03-20T12:05:25.481Z,5.67
2019-03-20T12:07:53.420Z,5.27
2019-03-20T12:10:21.647Z,5.10
2019-03-20T12:12:49.414Z,5.53
2019-03-20T12:15:17.835Z,6.97
2019-03-20T12:17:45.685Z,7.10
2019-03-20T12:20:15.259Z,6.63
2019-03-20T12:22:43.349Z,7.53
2019-03-20T12:25:13.669Z,7.63
2019-03-20T12:27:41.400Z,8.00
2019-03-20T12:30:11.113Z,8.40
2019-03-20T12:32:38.798Z,8.17
2019-03-20T12:35:08.270Z,8.23
2019-03-20T12:37:36.347Z,8.60
2019-03-20T12:40:06.041Z,8.10
2019-03-20T12:42:33.981Z,7.43
2019-03-20T12:45:02.649Z,7.57
2019-03-20T12:47:32.428Z,7.23
2019-03-20T12:50:00.379Z,7.80
2019-03-20T12:52:28.290Z,7.50
2019-03-20T12:55:02.251Z,7.57
2019-03-20T12:57:35.975Z,6.57
2019-03-20T13:00:06.211Z,6.50
2019-03-20T13:02:39.681Z,7.70
2019-03-20T13:05:08.786Z,8.83
2019-03-20T13:07:40.924Z,8.73
2019-03-20T13:10:11.733Z,9.20
2019-03-20T13:12:48.321Z,8.80
2019-03-20T13:15:18.974Z,8.63
2019-03-20T13:17:49.788Z,8.80
2019-03-20T13:20:18.023Z,9.00
2019-03-20T13:22:49.808Z,9.93
2019-03-20T13:25:18.044Z,9.70
2019-03-20T13:27:50.937Z,10.20
2019-03-20T13:30:22.175Z,10.70
2019-03-20T13:33:05.972Z,10.50
2019-03-20T13:50:23.676Z,7.67
2019-03-20T13:52:57.299Z,8.00
2019-03-20T14:05:00.760Z,7.27
2019-03-20T14:15:48.386Z,8.10
2019-03-20T14:29:15.935Z,8.80
2019-03-20T14:31:46.481Z,9.67
2019-03-20T14:34:17.097Z,9.23
2019-03-20T14:36:45.895Z,9.33
2019-03-20T14:39:17.699Z,9.27
2019-03-20T14:41:59.434Z,8.60
2019-03-20T14:44:34.828Z,9.37
2019-03-20T14:47:03.007Z,9.23
2019-03-20T14:49:30.894Z,9.40
2019-03-20T14:51:58.715Z,9.00
2019-03-20T14:54:27.879Z,8.47
2019-03-20T14:56:56.422Z,8.33
2019-03-20T14:59:24.130Z,8.53
2019-03-20T15:01:52.052Z,8.47
2019-03-20T15:04:19.840Z,8.37
2019-03-20T15:06:47.638Z,9.40
2019-03-20T15:09:15.467Z,8.83
2019-03-20T15:11:43.226Z,9.23
2019-03-20T15:14:10.926Z,9.37
2019-03-20T15:16:39.052Z,9.00
2019-03-20T15:19:07.186Z,9.13
2019-03-20T15:21:34.917Z,8.90
2019-03-20T15:24:02.912Z,9.20
2019-03-20T15:26:30.800Z,9.50
2019-03-20T15:29:05.222Z,8.90
2019-03-20T15:31:33.130Z,9.47
2019-03-20T15:34:00.973Z,9.23
2019-03-20T15:36:28.777Z,8.83
2019-03-20T15:38:56.988Z,9.70
2019-03-20T15:41:24.716Z,9.63
2019-03-20T15:44:01.973Z,9.37
2019-03-20T15:46:23.125Z,9.47
2019-03-20T15:48:50.808Z,9.03
2019-03-20T15:51:18.782Z,9.90
2019-03-20T15:53:46.474Z,9.70
2019-03-20T15:56:14.121Z,9.73
2019-03-20T15:58:41.871Z,10.33
2019-03-20T16:01:09.510Z,10.13
2019-03-20T16:03:37.636Z,10.00
2019-03-20T16:06:05.308Z,9.63
2019-03-20T16:08:32.919Z,9.70
2019-03-20T16:11:06.782Z,10.33
2019-03-20T16:13:33.133Z,10.37
2019-03-20T16:16:00.995Z,10.20
2019-03-20T16:18:28.664Z,11.20
2019-03-20T16:20:56.250Z,11.07
2019-03-20T16:23:23.901Z,10.57
2019-03-20T16:25:51.515Z,10.63
2019-03-20T16:28:20.285Z,11.13
2019-03-20T16:30:47.976Z,11.73
2019-03-20T16:33:15.821Z,10.87
2019-03-20T16:35:43.509Z,11.27
2019-03-20T16:38:11.124Z,12.03
2019-03-20T16:40:38.844Z,12.33
2019-03-20T16:43:06.631Z,11.97
2019-03-20T16:45:34.252Z,11.97
2019-03-20T16:48:02.078Z,12.93
2019-03-20T16:50:29.844Z,12.27
2019-03-20T16:52:57.533Z,11.23
2019-03-20T16:55:25.192Z,12.30
2019-03-20T16:57:52.859Z,12.73
2019-03-20T17:00:25.528Z,12.60
2019-03-20T17:02:53.242Z,12.87
2019-03-20T17:05:21.354Z,12.50
2019-03-20T17:07:49.014Z,12.83
2019-03-20T17:10:21.993Z,12.57
2019-03-20T17:12:50.764Z,12.60
2019-03-20T17:15:20.481Z,13.13
2019-03-20T17:17:48.128Z,13.13
2019-03-20T17:20:17.964Z,12.80
2019-03-20T17:22:46.894Z,13.17
2019-03-20T17:25:14.997Z,13.40
2019-03-20T17:27:42.579Z,12.90
2019-03-20T17:30:16.051Z,13.33
2019-03-20T17:32:43.813Z,15.23
2019-03-20T17:35:11.992Z,13.13
2019-03-20T17:37:39.903Z,13.60
2019-03-20T17:40:09.238Z,14.70
2019-03-20T17:42:36.928Z,14.30
2019-03-20T17:45:05.456Z,14.37
2019-03-20T17:47:33.173Z,14.10
2019-03-20T17:50:02.716Z,14.33
2019-03-20T17:52:30.329Z,13.97
2019-03-20T17:54:59.621Z,15.23
2019-03-20T17:57:27.441Z,14.80
2019-03-20T17:59:55.093Z,15.27
2019-03-20T18:02:24.228Z,15.43
2019-03-20T18:04:52.183Z,15.33
2019-03-20T18:07:21.745Z,15.23
2019-03-20T18:09:49.527Z,14.77
2019-03-20T18:12:17.288Z,14.90
2019-03-20T18:14:45.261Z,16.10
2019-03-20T18:17:12.942Z,15.50
2019-03-20T18:19:40.698Z,15.93
2019-03-20T18:22:08.382Z,15.73
2019-03-20T18:24:37.845Z,15.20
2019-03-20T18:27:05.545Z,16.20
2019-03-20T18:29:33.252Z,16.70
2019-03-20T18:32:00.961Z,16.17
2019-03-20T18:34:28.635Z,15.23
2019-03-20T18:36:56.312Z,15.93
2019-03-20T18:39:24.055Z,15.30
2019-03-20T18:41:57.822Z,14.80
2019-03-20T18:44:21.339Z,15.30
2019-03-20T18:46:51.197Z,15.37
2019-03-20T18:49:18.902Z,14.77
2019-03-20T18:51:47.758Z,14.30
2019-03-20T18:54:15.553Z,15.47
2019-03-20T18:56:43.229Z,15.17
2019-03-20T18:59:10.886Z,15.23
2019-03-20T19:01:39.846Z,15.20
2019-03-20T19:04:07.533Z,16.23
2019-03-20T19:06:35.271Z,16.90
2019-03-20T19:09:06.126Z,16.47
2019-03-20T19:11:34.008Z,17.27
2019-03-20T19:14:01.776Z,16.13
2019-03-20T19:16:29.505Z,17.13
2019-03-20T19:18:57.323Z,16.67
2019-03-20T19:21:26.109Z,17.17
2019-03-20T19:23:53.917Z,17.20
2019-03-20T19:26:21.722Z,17.73
2019-03-20T19:28:49.595Z,16.90
2019-03-20T19:31:17.358Z,18.50
2019-03-20T19:33:45.190Z,18.93
2019-03-20T19:36:12.921Z,19.07
2019-03-20T19:38:40.555Z,18.60
2019-03-20T19:41:09.335Z,19.53
2019-03-20T19:43:37.159Z,19.07
2019-03-20T19:46:06.583Z,18.70
2019-03-20T19:48:34.253Z,19.87
2019-03-20T19:51:01.951Z,19.43
2019-03-20T19:53:29.651Z,20.63
2019-03-20T19:55:57.346Z,20.20
2019-03-20T19:58:24.957Z,20.70
2019-03-20T20:00:52.718Z,20.20
2019-03-20T20:03:21.624Z,20.80
2019-03-20T20:05:49.279Z,20.80
2019-03-20T20:08:17.989Z,21.93
2019-03-20T20:10:45.724Z,20.30
2019-03-20T20:13:13.451Z,21.23
2019-03-20T20:15:41.199Z,19.60
2019-03-20T20:18:09.170Z,19.73
2019-03-20T20:20:36.835Z,19.67
2019-03-20T20:23:04.836Z,19.87
2019-03-20T20:25:32.664Z,19.77
2019-03-20T20:28:00.320Z,19.43
2019-03-20T20:30:27.866Z,18.77
2019-03-20T20:32:55.611Z,17.77
2019-03-20T20:35:23.331Z,19.20
2019-03-20T20:37:51.058Z,19.07
2019-03-20T20:40:18.918Z,18.17
2019-03-20T20:42:46.597Z,19.20
2019-03-20T20:45:14.309Z,18.33
2019-03-20T20:47:41.939Z,18.67
2019-03-20T20:50:10.090Z,18.30
2019-03-20T20:52:42.630Z,18.57
2019-03-20T20:55:11.345Z,17.77
2019-03-20T20:57:39.072Z,19.20
2019-03-20T21:00:10.752Z,18.33
2019-03-20T21:02:42.514Z,17.87
2019-03-20T21:05:10.951Z,18.20
2019-03-20T21:07:38.722Z,17.90
2019-03-20T21:10:07.098Z,18.00
2019-03-20T21:12:34.802Z,18.03
2019-03-20T21:15:02.697Z,17.90
2019-03-20T21:18:21.728Z,17.53
2019-03-20T21:20:50.061Z,16.90
2019-03-20T21:24:14.270Z,16.90
2019-03-20T21:27:14.162Z,15.30
2019-03-20T21:30:11.107Z,15.60
2019-03-20T21:32:40.820Z,15.63
2019-03-20T21:35:59.409Z,15.07
2019-03-20T21:38:25.904Z,14.83
2019-03-20T21:41:39.762Z,14.30
2019-03-20T21:44:43.516Z,13.87
2019-03-20T21:47:33.395Z,14.67
2019-03-20T21:51:00.933Z,14.37
2019-03-20T21:54:11.340Z,13.60
2019-03-20T21:56:42.971Z,14.77
2019-03-20T21:59:24.685Z,13.73
2019-03-20T22:02:16.441Z,13.80
2019-03-20T22:04:44.696Z,13.77
2019-03-20T22:07:13.065Z,12.87
2019-03-20T22:10:19.628Z,12.77
2019-03-20T22:13:19.347Z,13.47
2019-03-20T22:16:17.654Z,12.47
2019-03-20T22:19:28.933Z,12.70
2019-03-20T22:22:22.863Z,13.00
2019-03-20T22:25:30.674Z,12.33
2019-03-20T22:28:40.134Z,11.90
2019-03-20T22:31:08.330Z,12.80
2019-03-20T22:34:12.551Z,12.80
2019-03-20T22:36:42.002Z,12.20
2019-03-20T22:40:01.902Z,11.63
2019-03-20T22:42:37.412Z,11.27
2019-03-20T22:45:42.140Z,12.77
2019-03-20T22:48:39.509Z,11.70
2019-03-20T22:51:51.098Z,12.13
2019-03-20T22:55:14.586Z,11.57
2019-03-20T22:58:23.190Z,11.63
2019-03-20T23:00:52.326Z,11.57
2019-03-20T23:03:29.954Z,11.40
2019-03-20T23:05:58.162Z,11.30
2019-03-20T23:08:26.596Z,11.80
2019-03-20T23:10:54.791Z,11.43
2019-03-20T23:13:22.988Z,11.10
2019-03-20T23:15:51.463Z,11.87
2019-03-20T23:18:20.072Z,10.93
2019-03-20T23:20:49.650Z,10.40
2019-03-20T23:23:20.292Z,11.83
2019-03-20T23:25:49.500Z,10.90
2019-03-20T23:28:19.551Z,11.00
2019-03-20T23:30:48.732Z,11.00
2019-03-20T23:33:16.993Z,10.50
2019-03-20T23:35:45.682Z,10.90
2019-03-20T23:38:14.869Z,10.30
2019-03-20T23:40:43.206Z,10.87
2019-03-20T23:43:11.589Z,10.43
2019-03-20T23:45:39.809Z,10.97
2019-03-20T23:48:23.877Z,10.00
2019-03-20T23:50:55.043Z,11.10
2019-03-20T23:53:23.395Z,10.13
2019-03-20T23:55:51.546Z,10.93
2019-03-20T23:58:19.889Z,10.30
